sensor_id;sensor_type;location;lat;lon;timestamp;P1;P4;P2;P0;N10;N4;N25;N1;N05;TS
76997;SPS30;65930;48.874;10.734;2023-03-30T00:01:19;4.10;4.05;3.95;3.62;28.91;28.90;28.86;28.65;24.73;0.54
76997;SPS30;65930;48.874;10.734;2023-03-30T00:03:48;3.99;3.94;3.85;3.53;28.20;28.19;28.16;27.96;24.14;0.56
76997;SPS30;65930;48.874;10.734;2023-03-30T00:06:16;3.87;3.82;3.73;3.43;27.39;27.38;27.35;27.15;23.46;0.56
76997;SPS30;65930;48.874;10.734;2023-03-30T00:08:48;3.93;3.86;3.72;3.36;26.82;26.80;26.76;26.51;22.79;0.58
76997;SPS30;65930;48.874;10.734;2023-03-30T00:11:19;4.20;4.10;3.90;3.45;27.58;27.56;27.51;27.18;23.24;0.59
76997;SPS30;65930;48.874;10.734;2023-03-30T00:13:48;4.07;3.98;3.81;3.40;27.15;27.13;27.08;26.79;22.96;0.57
76997;SPS30;65930;48.874;10.734;2023-03-30T00:16:17;3.92;3.84;3.68;3.30;26.34;26.32;26.27;26.00;22.31;0.57
76997;SPS30;65930;48.874;10.734;2023-03-30T00:18:48;3.84;3.77;3.62;3.25;25.92;25.91;25.86;25.60;21.97;0.57
76997;SPS30;65930;48.874;10.734;2023-03-30T00:21:17;4.04;3.93;3.72;3.26;26.05;26.03;25.97;25.62;21.85;0.60
76997;SPS30;65930;48.874;10.734;2023-03-30T00:23:46;4.39;4.23;3.92;3.34;26.71;26.68;26.60;26.14;22.10;0.62
76997;SPS30;65930;48.874;10.734;2023-03-30T00:26:14;4.09;3.95;3.68;3.16;25.24;25.21;25.14;24.73;20.95;0.63
76997;SPS30;65930;48.874;10.734;2023-03-30T00:28:43;4.11;3.96;3.66;3.11;24.85;24.82;24.74;24.30;20.53;0.62
76997;SPS30;65930;48.874;10.734;2023-03-30T00:31:11;4.12;3.99;3.73;3.23;25.81;25.79;25.71;25.32;21.51;0.61
76997;SPS30;65930;48.874;10.734;2023-03-30T00:33:39;4.24;4.07;3.73;3.13;25.00;24.97;24.88;24.39;20.51;0.63
76997;SPS30;65930;48.874;10.734;2023-03-30T00:36:13;4.38;4.18;3.76;3.08;24.61;24.58;24.47;23.90;19.94;0.63
76997;SPS30;65930;48.874;10.734;2023-03-30T00:38:42;4.67;4.45;4.01;3.27;26.16;26.13;26.01;25.39;21.18;0.63
76997;SPS30;65930;48.874;10.734;2023-03-30T00:41:11;4.32;4.13;3.77;3.14;25.06;25.03;24.93;24.41;20.48;0.62
76997;SPS30;65930;48.874;10.734;2023-03-30T00:43:55;5.09;4.83;4.30;3.45;27.54;27.50;27.36;26.64;22.08;0.66
76997;SPS30;65930;48.874;10.734;2023-03-30T00:46:27;4.58;4.33;3.83;3.04;24.27;24.23;24.10;23.42;19.34;0.66
76997;SPS30;65930;48.874;10.734;2023-03-30T00:48:57;4.72;4.49;4.02;3.26;26.09;26.05;25.93;25.29;21.04;0.63
76997;SPS30;65930;48.874;10.734;2023-03-30T00:51:30;5.32;5.07;4.56;3.72;29.72;29.68;29.54;28.83;24.04;0.65
76997;SPS30;65930;48.874;10.734;2023-03-30T00:54:04;5.34;5.12;4.68;3.92;31.35;31.32;31.20;30.58;25.71;0.64
76997;SPS30;65930;48.874;10.734;2023-03-30T00:56:36;5.74;5.51;5.07;4.27;34.10;34.06;33.94;33.29;28.04;0.63
76997;SPS30;65930;48.874;10.734;2023-03-30T00:59:04;5.43;5.20;4.75;3.96;31.63;31.59;31.47;30.82;25.87;0.63
76997;SPS30;65930;48.874;10.734;2023-03-30T01:01:32;5.43;5.18;4.68;3.84;30.72;30.68;30.54;29.85;24.94;0.64
76997;SPS30;65930;48.874;10.734;2023-03-30T01:04:05;5.45;5.20;4.68;3.84;30.65;30.61;30.47;29.76;24.84;0.66
76997;SPS30;65930;48.874;10.734;2023-03-30T01:06:37;5.24;5.00;4.52;3.71;29.63;29.59;29.46;28.78;24.04;0.64
76997;SPS30;65930;48.874;10.734;2023-03-30T01:09:08;5.30;5.05;4.56;3.74;29.88;29.84;29.71;29.02;24.23;0.64
76997;SPS30;65930;48.874;10.734;2023-03-30T01:11:37;4.74;4.53;4.11;3.40;27.16;27.13;27.02;26.42;22.12;0.64
76997;SPS30;65930;48.874;10.734;2023-03-30T01:14:06;4.64;4.43;4.03;3.33;26.64;26.61;26.50;25.93;21.72;0.63
76997;SPS30;65930;48.874;10.734;2023-03-30T01:16:39;4.59;4.38;3.97;3.27;26.16;26.12;26.01;25.43;21.28;0.63
76997;SPS30;65930;48.874;10.734;2023-03-30T01:19:31;4.96;4.71;4.21;3.40;27.18;27.15;27.01;26.33;21.88;0.66
76997;SPS30;65930;48.874;10.734;2023-03-30T01:22:48;5.30;5.03;4.47;3.59;28.69;28.65;28.50;27.75;23.01;0.65
76997;SPS30;65930;48.874;10.734;2023-03-30T01:25:49;5.48;5.22;4.69;3.82;30.53;30.49;30.35;29.62;24.68;0.66
76997;SPS30;65930;48.874;10.734;2023-03-30T01:28:39;5.45;5.18;4.65;3.78;30.19;30.15;30.01;29.28;24.38;0.66
76997;SPS30;65930;48.874;10.734;2023-03-30T01:31:33;5.02;4.76;4.26;3.44;27.50;27.46;27.32;26.63;22.12;0.66
76997;SPS30;65930;48.874;10.734;2023-03-30T01:34:21;5.18;4.91;4.37;3.50;27.98;27.94;27.80;27.06;22.42;0.66
76997;SPS30;65930;48.874;10.734;2023-03-30T01:37:16;5.10;4.84;4.32;3.48;27.82;27.78;27.64;26.93;22.36;0.66
76997;SPS30;65930;48.874;10.734;2023-03-30T01:40:10;5.02;4.80;4.35;3.59;28.72;28.68;28.56;27.93;23.38;0.64
76997;SPS30;65930;48.874;10.734;2023-03-30T01:42:44;4.47;4.26;3.84;3.14;25.13;25.09;24.98;24.40;20.36;0.65
76997;SPS30;65930;48.874;10.734;2023-03-30T01:45:26;4.61;4.37;3.88;3.11;24.82;24.79;24.66;24.00;19.88;0.66
76997;SPS30;65930;48.874;10.734;2023-03-30T01:48:06;5.07;4.80;4.28;3.45;27.54;27.50;27.36;26.65;22.11;0.66
76997;SPS30;65930;48.874;10.734;2023-03-30T01:50:41;5.00;4.76;4.30;3.53;28.17;28.13;28.01;27.36;22.84;0.66
76997;SPS30;65930;48.874;10.734;2023-03-30T01:53:15;5.15;4.90;4.41;3.60;28.78;28.74;28.61;27.93;23.29;0.66
76997;SPS30;65930;48.874;10.734;2023-03-30T01:55:52;4.95;4.74;4.32;3.59;28.69;28.66;28.54;27.95;23.44;0.64
76997;SPS30;65930;48.874;10.734;2023-03-30T01:58:27;4.85;4.63;4.19;3.44;27.53;27.49;27.37;26.75;22.36;0.64
76997;SPS30;65930;48.874;10.734;2023-03-30T02:01:02;5.08;4.82;4.32;3.50;27.94;27.90;27.76;27.07;22.51;0.65
76997;SPS30;65930;48.874;10.734;2023-03-30T02:03:35;5.33;5.04;4.48;3.58;28.58;28.54;28.39;27.62;22.86;0.66
76997;SPS30;65930;48.874;10.734;2023-03-30T02:06:08;5.08;4.81;4.27;3.41;27.24;27.19;27.05;26.31;21.78;0.65
76997;SPS30;65930;48.874;10.734;2023-03-30T02:08:43;5.35;5.11;4.63;3.82;30.49;30.45;30.32;29.64;24.80;0.63
76997;SPS30;65930;48.874;10.734;2023-03-30T02:11:18;5.37;5.13;4.65;3.84;30.65;30.61;30.48;29.81;24.94;0.63
76997;SPS30;65930;48.874;10.734;2023-03-30T02:13:46;4.87;4.67;4.27;3.58;28.58;28.55;28.44;27.87;23.43;0.61
76997;SPS30;65930;48.874;10.734;2023-03-30T02:16:16;5.09;4.87;4.43;3.68;29.44;29.40;29.29;28.67;24.05;0.63
76997;SPS30;65930;48.874;10.734;2023-03-30T02:18:53;5.41;5.15;4.62;3.75;29.94;29.90;29.76;29.03;24.16;0.67
76997;SPS30;65930;48.874;10.734;2023-03-30T02:21:23;5.06;4.81;4.32;3.52;28.13;28.09;27.96;27.29;22.73;0.64
76997;SPS30;65930;48.874;10.734;2023-03-30T02:23:53;4.93;4.72;4.30;3.59;28.68;28.65;28.54;27.95;23.46;0.62
76997;SPS30;65930;48.874;10.734;2023-03-30T02:26:24;4.89;4.70;4.32;3.64;29.10;29.07;28.96;28.41;23.94;0.60
76997;SPS30;65930;48.874;10.734;2023-03-30T02:28:52;5.11;4.87;4.41;3.63;29.01;28.98;28.85;28.20;23.58;0.62
76997;SPS30;65930;48.874;10.734;2023-03-30T02:31:21;5.77;5.42;4.71;3.64;29.06;29.01;28.82;27.88;22.80;0.68
76997;SPS30;65930;48.874;10.734;2023-03-30T02:33:54;6.11;5.74;5.00;3.87;30.95;30.90;30.70;29.72;24.33;0.68
76997;SPS30;65930;48.874;10.734;2023-03-30T02:36:38;5.73;5.40;4.73;3.71;29.62;29.57;29.39;28.50;23.42;0.68
76997;SPS30;65930;48.874;10.734;2023-03-30T02:39:28;6.32;5.90;5.05;3.79;30.30;30.24;30.02;28.91;23.39;0.71
76997;SPS30;65930;48.874;10.734;2023-03-30T02:42:20;6.15;5.74;4.91;3.68;29.41;29.35;29.13;28.04;22.68;0.69
76997;SPS30;65930;48.874;10.734;2023-03-30T02:45:07;6.29;5.91;5.15;3.98;31.78;31.72;31.52;30.50;24.95;0.67
76997;SPS30;65930;48.874;10.734;2023-03-30T02:47:51;5.42;5.10;4.47;3.48;27.83;27.78;27.61;26.76;21.96;0.67
76997;SPS30;65930;48.874;10.734;2023-03-30T02:50:33;5.69;5.36;4.69;3.67;29.31;29.26;29.09;28.20;23.16;0.67
76997;SPS30;65930;48.874;10.734;2023-03-30T02:53:13;5.53;5.21;4.58;3.60;28.80;28.75;28.58;27.74;22.83;0.67
76997;SPS30;65930;48.874;10.734;2023-03-30T02:55:55;5.96;5.62;4.94;3.88;31.04;30.99;30.81;29.89;24.60;0.65
76997;SPS30;65930;48.874;10.734;2023-03-30T02:58:32;5.31;5.03;4.47;3.57;28.52;28.47;28.33;27.56;22.81;0.63
76997;SPS30;65930;48.874;10.734;2023-03-30T03:01:08;5.11;4.87;4.39;3.60;28.78;28.74;28.62;27.95;23.34;0.63
76997;SPS30;65930;48.874;10.734;2023-03-30T03:03:43;5.35;5.06;4.48;3.56;28.41;28.37;28.21;27.42;22.65;0.68
76997;SPS30;65930;48.874;10.734;2023-03-30T03:06:15;5.41;5.09;4.45;3.47;27.71;27.66;27.49;26.64;21.85;0.68
76997;SPS30;65930;48.874;10.734;2023-03-30T03:08:45;5.37;5.08;4.51;3.60;28.77;28.73;28.58;27.80;23.00;0.67
76997;SPS30;65930;48.874;10.734;2023-03-30T03:11:14;5.58;5.25;4.59;3.57;28.57;28.52;28.34;27.46;22.53;0.67
76997;SPS30;65930;48.874;10.734;2023-03-30T03:13:44;5.15;4.84;4.20;3.24;25.87;25.82;25.66;24.81;20.28;0.68
76997;SPS30;65930;48.874;10.734;2023-03-30T03:16:12;5.65;5.29;4.57;3.48;27.81;27.76;27.57;26.62;21.66;0.69
76997;SPS30;65930;48.874;10.734;2023-03-30T03:18:41;5.54;5.16;4.38;3.25;25.95;25.89;25.69;24.68;19.87;0.71
76997;SPS30;65930;48.874;10.734;2023-03-30T03:21:10;6.14;5.67;4.73;3.38;27.04;26.98;26.73;25.52;20.26;0.71
76997;SPS30;65930;48.874;10.734;2023-03-30T03:23:40;6.69;6.18;5.16;3.69;29.53;29.46;29.20;27.88;22.13;0.70
76997;SPS30;65930;48.874;10.734;2023-03-30T03:26:09;6.06;5.60;4.67;3.34;26.68;26.61;26.37;25.17;19.97;0.73
76997;SPS30;65930;48.874;10.734;2023-03-30T03:28:38;5.58;5.16;4.31;3.10;24.80;24.74;24.53;23.44;18.64;0.71
76997;SPS30;65930;48.874;10.734;2023-03-30T03:31:07;5.94;5.50;4.61;3.32;26.54;26.48;26.25;25.09;19.98;0.71
76997;SPS30;65930;48.874;10.734;2023-03-30T03:33:35;6.76;6.21;5.13;3.60;28.78;28.70;28.42;27.03;21.27;0.75
76997;SPS30;65930;48.874;10.734;2023-03-30T03:36:03;6.32;5.82;4.81;3.38;27.02;26.95;26.69;25.39;20.00;0.76
76997;SPS30;65930;48.874;10.734;2023-03-30T03:38:31;6.45;5.93;4.91;3.45;27.63;27.56;27.29;25.97;20.47;0.76
76997;SPS30;65930;48.874;10.734;2023-03-30T03:40:59;6.68;6.15;5.09;3.58;28.65;28.57;28.30;26.93;21.23;0.75
76997;SPS30;65930;48.874;10.734;2023-03-30T03:43:28;6.96;6.38;5.24;3.62;28.94;28.86;28.56;27.09;21.19;0.75
76997;SPS30;65930;48.874;10.734;2023-03-30T03:45:56;6.54;5.99;4.90;3.36;26.88;26.80;26.52;25.12;19.58;0.75
76997;SPS30;65930;48.874;10.734;2023-03-30T03:48:26;6.46;5.93;4.88;3.38;27.07;27.00;26.72;25.37;19.88;0.75
76997;SPS30;65930;48.874;10.734;2023-03-30T03:50:54;6.51;6.00;4.98;3.52;28.19;28.11;27.85;26.54;20.97;0.74
76997;SPS30;65930;48.874;10.734;2023-03-30T03:53:25;6.31;5.84;4.90;3.54;28.32;28.26;28.01;26.79;21.36;0.73
76997;SPS30;65930;48.874;10.734;2023-03-30T03:55:54;5.81;5.37;4.50;3.25;25.98;25.91;25.69;24.56;19.57;0.73
76997;SPS30;65930;48.874;10.734;2023-03-30T03:58:22;6.15;5.65;4.65;3.24;25.89;25.82;25.56;24.27;19.04;0.74
76997;SPS30;65930;48.874;10.734;2023-03-30T04:00:56;6.49;5.95;4.87;3.35;26.83;26.75;26.47;25.09;19.58;0.72
76997;SPS30;65930;48.874;10.734;2023-03-30T04:03:26;6.87;6.27;5.08;3.42;27.36;27.27;26.97;25.45;19.66;0.74
76997;SPS30;65930;48.874;10.734;2023-03-30T04:05:56;6.54;5.96;4.81;3.21;25.69;25.61;25.31;23.85;18.36;0.76
76997;SPS30;65930;48.874;10.734;2023-03-30T04:08:25;6.52;5.95;4.81;3.22;25.79;25.71;25.41;23.96;18.47;0.77
76997;SPS30;65930;48.874;10.734;2023-03-30T04:10:54;6.44;5.92;4.88;3.41;27.26;27.19;26.92;25.58;20.10;0.74
76997;SPS30;65930;48.874;10.734;2023-03-30T04:13:22;6.39;5.88;4.84;3.38;27.00;26.93;26.66;25.33;19.89;0.74
76997;SPS30;65930;48.874;10.734;2023-03-30T04:15:49;6.19;5.71;4.75;3.38;26.99;26.93;26.68;25.44;20.14;0.71
76997;SPS30;65930;48.874;10.734;2023-03-30T04:18:17;6.71;6.16;5.08;3.55;28.41;28.33;28.05;26.66;20.95;0.73
76997;SPS30;65930;48.874;10.734;2023-03-30T04:20:48;6.80;6.27;5.22;3.72;29.77;29.69;29.42;28.06;22.24;0.74
76997;SPS30;65930;48.874;10.734;2023-03-30T04:23:16;6.37;5.88;4.91;3.51;28.08;28.01;27.75;26.50;21.03;0.71
76997;SPS30;65930;48.874;10.734;2023-03-30T04:25:47;5.87;5.42;4.54;3.26;26.06;25.99;25.76;24.62;19.57;0.71
76997;SPS30;65930;48.874;10.734;2023-03-30T04:28:17;6.07;5.67;4.86;3.66;29.27;29.21;29.00;27.93;22.63;0.69
76997;SPS30;65930;48.874;10.734;2023-03-30T04:30:47;6.11;5.70;4.88;3.67;29.31;29.25;29.03;27.95;22.62;0.68
76997;SPS30;65930;48.874;10.734;2023-03-30T04:33:16;6.00;5.60;4.80;3.61;28.87;28.81;28.60;27.55;22.32;0.69
76997;SPS30;65930;48.874;10.734;2023-03-30T04:35:44;5.79;5.41;4.64;3.50;27.94;27.89;27.69;26.68;21.62;0.68
76997;SPS30;65930;48.874;10.734;2023-03-30T04:38:14;5.32;5.02;4.41;3.47;27.74;27.69;27.53;26.72;21.99;0.65
76997;SPS30;65930;48.874;10.734;2023-03-30T04:40:47;5.65;5.31;4.62;3.57;28.56;28.51;28.33;27.42;22.43;0.65
76997;SPS30;65930;48.874;10.734;2023-03-30T04:43:16;5.68;5.31;4.59;3.50;27.98;27.92;27.73;26.78;21.80;0.67
76997;SPS30;65930;48.874;10.734;2023-03-30T04:45:48;6.40;5.97;5.10;3.82;30.57;30.50;30.28;29.14;23.57;0.68
76997;SPS30;65930;48.874;10.734;2023-03-30T04:48:17;5.82;5.41;4.60;3.40;27.21;27.15;26.94;25.88;20.83;0.71
76997;SPS30;65930;48.874;10.734;2023-03-30T04:50:47;6.48;6.01;5.06;3.68;29.44;29.37;29.13;27.89;22.30;0.71
76997;SPS30;65930;48.874;10.734;2023-03-30T04:53:18;7.82;7.34;6.39;4.94;39.49;39.42;39.17;37.90;31.01;0.66
76997;SPS30;65930;48.874;10.734;2023-03-30T04:55:49;8.85;8.50;7.80;6.55;52.37;52.31;52.12;51.10;43.02;0.64
76997;SPS30;65930;48.874;10.734;2023-03-30T04:58:18;6.97;6.70;6.18;5.23;41.77;41.73;41.58;40.82;34.43;0.63
76997;SPS30;65930;48.874;10.734;2023-03-30T05:00:46;6.95;6.65;6.05;5.02;40.11;40.06;39.90;39.05;32.74;0.64
76997;SPS30;65930;48.874;10.734;2023-03-30T05:03:14;6.32;5.98;5.29;4.21;33.64;33.58;33.40;32.47;26.84;0.66
76997;SPS30;65930;48.874;10.734;2023-03-30T05:05:42;6.32;5.94;5.17;4.00;31.99;31.93;31.73;30.71;25.14;0.69
76997;SPS30;65930;48.874;10.734;2023-03-30T05:08:10;6.30;5.89;5.07;3.85;30.81;30.75;30.54;29.46;23.95;0.69
76997;SPS30;65930;48.874;10.734;2023-03-30T05:10:39;6.59;6.18;5.36;4.11;32.85;32.78;32.57;31.48;25.68;0.68
76997;SPS30;65930;48.874;10.734;2023-03-30T05:13:07;6.92;6.58;5.91;4.80;38.36;38.31;38.13;37.19;30.97;0.64
76997;SPS30;65930;48.874;10.734;2023-03-30T05:15:35;6.21;5.96;5.45;4.57;36.49;36.44;36.31;35.58;29.92;0.61
76997;SPS30;65930;48.874;10.734;2023-03-30T05:18:03;6.10;5.83;5.31;4.40;35.18;35.14;35.00;34.25;28.72;0.63
76997;SPS30;65930;48.874;10.734;2023-03-30T05:20:31;5.90;5.60;5.01;4.04;32.30;32.26;32.10;31.28;25.99;0.65
76997;SPS30;65930;48.874;10.734;2023-03-30T05:22:59;5.91;5.58;4.92;3.89;31.10;31.05;30.87;29.98;24.72;0.65
76997;SPS30;65930;48.874;10.734;2023-03-30T05:25:27;5.71;5.38;4.71;3.69;29.46;29.41;29.24;28.35;23.29;0.65
76997;SPS30;65930;48.874;10.734;2023-03-30T05:27:57;6.07;5.66;4.85;3.64;29.06;29.00;28.79;27.72;22.42;0.67
76997;SPS30;65930;48.874;10.734;2023-03-30T05:30:25;6.22;5.80;4.96;3.71;29.67;29.61;29.39;28.28;22.86;0.68
76997;SPS30;65930;48.874;10.734;2023-03-30T05:32:53;5.95;5.59;4.88;3.79;30.27;30.21;30.03;29.07;23.82;0.67
76997;SPS30;65930;48.874;10.734;2023-03-30T05:35:21;5.88;5.50;4.73;3.59;28.66;28.61;28.41;27.40;22.25;0.68
76997;SPS30;65930;48.874;10.734;2023-03-30T05:37:49;6.09;5.70;4.93;3.77;30.10;30.05;29.84;28.82;23.48;0.67
76997;SPS30;65930;48.874;10.734;2023-03-30T05:40:19;5.86;5.47;4.70;3.54;28.34;28.28;28.08;27.06;21.94;0.67
76997;SPS30;65930;48.874;10.734;2023-03-30T05:42:47;6.09;5.71;4.96;3.82;30.52;30.46;30.26;29.26;23.90;0.67
76997;SPS30;65930;48.874;10.734;2023-03-30T05:45:17;5.89;5.56;4.89;3.85;30.79;30.74;30.56;29.66;24.43;0.68
76997;SPS30;65930;48.874;10.734;2023-03-30T05:47:44;6.39;6.01;5.23;4.05;32.37;32.31;32.11;31.08;25.43;0.69
76997;SPS30;65930;48.874;10.734;2023-03-30T05:50:12;6.20;5.83;5.10;3.97;31.77;31.71;31.52;30.54;25.06;0.69
76997;SPS30;65930;48.874;10.734;2023-03-30T05:52:40;6.74;6.31;5.45;4.15;33.14;33.08;32.85;31.71;25.80;0.70
76997;SPS30;65930;48.874;10.734;2023-03-30T05:55:08;6.14;5.75;4.97;3.80;30.35;30.29;30.09;29.05;23.66;0.69
76997;SPS30;65930;48.874;10.734;2023-03-30T05:57:37;5.96;5.62;4.95;3.89;31.12;31.07;30.89;29.98;24.68;0.68
76997;SPS30;65930;48.874;10.734;2023-03-30T06:00:05;6.18;5.82;5.12;4.03;32.20;32.15;31.96;31.02;25.54;0.66
76997;SPS30;65930;48.874;10.734;2023-03-30T06:02:37;6.75;6.32;5.46;4.17;33.34;33.28;33.05;31.92;26.00;0.68
76997;SPS30;65930;48.874;10.734;2023-03-30T06:05:05;6.38;5.98;5.18;3.96;31.67;31.61;31.40;30.34;24.73;0.67
76997;SPS30;65930;48.874;10.734;2023-03-30T06:07:34;6.38;5.99;5.24;4.07;32.54;32.48;32.28;31.26;25.63;0.67
76997;SPS30;65930;48.874;10.734;2023-03-30T06:10:03;6.33;5.96;5.24;4.11;32.88;32.83;32.64;31.66;26.05;0.66
76997;SPS30;65930;48.874;10.734;2023-03-30T06:12:32;5.93;5.63;5.02;4.04;32.29;32.24;32.08;31.24;25.93;0.64
76997;SPS30;65930;48.874;10.734;2023-03-30T06:15:01;5.98;5.66;5.02;4.01;32.02;31.97;31.80;30.93;25.60;0.65
76997;SPS30;65930;48.874;10.734;2023-03-30T06:17:29;6.65;6.23;5.38;4.09;32.72;32.66;32.43;31.30;25.47;0.70
76997;SPS30;65930;48.874;10.734;2023-03-30T06:19:59;6.56;6.15;5.35;4.11;32.89;32.83;32.61;31.54;25.76;0.70
76997;SPS30;65930;48.874;10.734;2023-03-30T06:22:27;7.25;6.73;5.70;4.18;33.45;33.37;33.10;31.76;25.48;0.73
76997;SPS30;65930;48.874;10.734;2023-03-30T06:24:57;6.58;6.14;5.26;3.96;31.64;31.57;31.35;30.19;24.45;0.69
76997;SPS30;65930;48.874;10.734;2023-03-30T06:27:25;5.84;5.49;4.81;3.75;29.93;29.88;29.70;28.78;23.62;0.66
76997;SPS30;65930;48.874;10.734;2023-03-30T06:29:53;6.18;5.82;5.09;3.96;31.67;31.61;31.42;30.44;24.97;0.65
76997;SPS30;65930;48.874;10.734;2023-03-30T06:32:21;7.84;7.33;6.30;4.76;38.04;37.96;37.70;36.34;29.48;0.70
76997;SPS30;65930;48.874;10.734;2023-03-30T06:34:49;8.63;8.08;6.98;5.32;42.56;42.48;42.19;40.74;33.17;0.72
76997;SPS30;65930;48.874;10.734;2023-03-30T06:37:19;8.63;8.19;7.32;5.91;47.19;47.13;46.89;45.69;37.95;0.68
76997;SPS30;65930;48.874;10.734;2023-03-30T06:39:47;6.40;6.07;5.40;4.34;34.65;34.60;34.42;33.51;27.78;0.68
76997;SPS30;65930;48.874;10.734;2023-03-30T06:42:16;6.03;5.70;5.04;3.99;31.92;31.87;31.69;30.80;25.42;0.68
76997;SPS30;65930;48.874;10.734;2023-03-30T06:44:44;6.20;5.77;4.92;3.66;29.27;29.20;28.98;27.86;22.47;0.70
76997;SPS30;65930;48.874;10.734;2023-03-30T06:47:15;6.64;6.15;5.17;3.75;30.02;29.95;29.69;28.42;22.70;0.71
76997;SPS30;65930;48.874;10.734;2023-03-30T06:49:44;6.70;6.24;5.32;3.96;31.65;31.58;31.34;30.14;24.31;0.71
76997;SPS30;65930;48.874;10.734;2023-03-30T06:52:12;6.38;5.92;5.00;3.65;29.20;29.13;28.89;27.69;22.17;0.71
76997;SPS30;65930;48.874;10.734;2023-03-30T06:54:43;6.31;5.87;4.99;3.69;29.51;29.45;29.22;28.06;22.59;0.70
76997;SPS30;65930;48.874;10.734;2023-03-30T06:57:10;6.65;6.16;5.19;3.77;30.18;30.11;29.86;28.59;22.85;0.71
76997;SPS30;65930;48.874;10.734;2023-03-30T06:59:39;6.60;6.10;5.11;3.69;29.47;29.40;29.14;27.86;22.18;0.72
76997;SPS30;65930;48.874;10.734;2023-03-30T07:02:10;6.59;6.12;5.18;3.82;30.51;30.45;30.20;28.98;23.28;0.70
76997;SPS30;65930;48.874;10.734;2023-03-30T07:04:39;6.69;6.17;5.13;3.65;29.16;29.08;28.81;27.47;21.74;0.74
76997;SPS30;65930;48.874;10.734;2023-03-30T07:07:08;7.07;6.53;5.45;3.90;31.18;31.10;30.82;29.43;23.37;0.73
76997;SPS30;65930;48.874;10.734;2023-03-30T07:09:36;6.58;6.08;5.07;3.63;29.05;28.98;28.72;27.42;21.78;0.74
76997;SPS30;65930;48.874;10.734;2023-03-30T07:12:06;6.79;6.27;5.23;3.74;29.88;29.80;29.54;28.19;22.37;0.73
76997;SPS30;65930;48.874;10.734;2023-03-30T07:14:34;7.02;6.47;5.36;3.78;30.27;30.19;29.90;28.48;22.48;0.74
76997;SPS30;65930;48.874;10.734;2023-03-30T07:17:02;7.22;6.67;5.57;3.99;31.89;31.81;31.52;30.10;23.90;0.72
76997;SPS30;65930;48.874;10.734;2023-03-30T07:19:30;7.08;6.55;5.51;4.00;32.01;31.94;31.67;30.31;24.21;0.72
76997;SPS30;65930;48.874;10.734;2023-03-30T07:21:58;7.28;6.75;5.71;4.19;33.51;33.43;33.16;31.80;25.51;0.70
76997;SPS30;65930;48.874;10.734;2023-03-30T07:24:26;7.52;7.01;5.98;4.47;35.72;35.65;35.38;34.04;27.49;0.70
76997;SPS30;65930;48.874;10.734;2023-03-30T07:26:56;8.06;7.48;6.33;4.64;37.14;37.06;36.76;35.25;28.28;0.73
76997;SPS30;65930;48.874;10.734;2023-03-30T07:29:25;8.04;7.45;6.25;4.53;36.19;36.10;35.79;34.25;27.32;0.74
76997;SPS30;65930;48.874;10.734;2023-03-30T07:31:54;8.16;7.56;6.37;4.64;37.09;37.01;36.70;35.15;28.10;0.72
76997;SPS30;65930;48.874;10.734;2023-03-30T07:34:22;8.88;8.30;7.12;5.37;42.97;42.88;42.57;41.03;33.27;0.71
76997;SPS30;65930;48.874;10.734;2023-03-30T07:36:50;7.28;6.80;5.83;4.40;35.17;35.10;34.85;33.58;27.22;0.70
76997;SPS30;65930;48.874;10.734;2023-03-30T07:39:20;7.42;6.92;5.94;4.48;35.80;35.73;35.47;34.18;27.70;0.68
76997;SPS30;65930;48.874;10.734;2023-03-30T07:41:48;9.34;8.76;7.59;5.82;46.56;46.48;46.17;44.62;36.41;0.67
76997;SPS30;65930;48.874;10.734;2023-03-30T07:44:16;9.18;8.80;8.05;6.74;53.86;53.80;53.59;52.52;44.15;0.62
76997;SPS30;65930;48.874;10.734;2023-03-30T07:46:45;8.27;7.90;7.18;5.94;47.46;47.41;47.21;46.18;38.69;0.65
76997;SPS30;65930;48.874;10.734;2023-03-30T07:49:13;8.07;7.68;6.88;5.58;44.59;44.53;44.32;43.22;35.96;0.64
76997;SPS30;65930;48.874;10.734;2023-03-30T07:51:41;7.37;6.94;6.08;4.76;38.02;37.96;37.73;36.58;30.05;0.66
76997;SPS30;65930;48.874;10.734;2023-03-30T07:54:09;6.79;6.42;5.69;4.54;36.26;36.20;36.01;35.02;28.96;0.65
76997;SPS30;65930;48.874;10.734;2023-03-30T07:56:37;7.33;6.91;6.07;4.76;38.05;37.98;37.76;36.63;30.12;0.66
76997;SPS30;65930;48.874;10.734;2023-03-30T07:59:08;7.87;7.50;6.75;5.52;44.11;44.06;43.86;42.82;35.72;0.64
76997;SPS30;65930;48.874;10.734;2023-03-30T08:01:38;7.37;7.01;6.30;5.13;41.00;40.94;40.75;39.77;33.13;0.63
76997;SPS30;65930;48.874;10.734;2023-03-30T08:04:07;6.95;6.65;6.04;5.01;40.04;39.99;39.83;38.98;32.67;0.62
76997;SPS30;65930;48.874;10.734;2023-03-30T08:06:35;7.13;6.78;6.07;4.93;39.37;39.32;39.13;38.16;31.75;0.64
76997;SPS30;65930;48.874;10.734;2023-03-30T08:09:03;7.06;6.69;5.95;4.76;38.01;37.96;37.76;36.74;30.43;0.67
76997;SPS30;65930;48.874;10.734;2023-03-30T08:11:31;7.39;6.99;6.19;4.92;39.32;39.26;39.05;37.97;31.38;0.69
76997;SPS30;65930;48.874;10.734;2023-03-30T08:14:01;7.59;7.16;6.32;4.99;39.86;39.80;39.57;38.43;31.68;0.68
76997;SPS30;65930;48.874;10.734;2023-03-30T08:16:29;7.27;6.89;6.14;4.93;39.42;39.36;39.16;38.14;31.63;0.66
76997;SPS30;65930;48.874;10.734;2023-03-30T08:18:57;7.25;6.85;6.05;4.78;38.23;38.17;37.96;36.87;30.42;0.68
76997;SPS30;65930;48.874;10.734;2023-03-30T08:21:27;6.75;6.37;5.61;4.42;35.35;35.29;35.09;34.06;28.07;0.67
76997;SPS30;65930;48.874;10.734;2023-03-30T08:23:55;6.60;6.26;5.59;4.50;35.95;35.90;35.72;34.79;28.87;0.64
76997;SPS30;65930;48.874;10.734;2023-03-30T08:26:24;7.97;7.59;6.83;5.58;44.57;44.51;44.31;43.26;36.08;0.64
76997;SPS30;65930;48.874;10.734;2023-03-30T08:28:53;8.91;8.54;7.79;6.50;51.97;51.91;51.71;50.65;42.53;0.63
76997;SPS30;65930;48.874;10.734;2023-03-30T08:31:21;8.05;7.79;7.28;6.29;50.24;50.20;50.05;49.28;41.83;0.60
76997;SPS30;65930;48.874;10.734;2023-03-30T08:33:49;9.03;8.69;8.00;6.77;54.11;54.05;53.87;52.87;44.60;0.60
76997;SPS30;65930;48.874;10.734;2023-03-30T08:36:17;10.89;10.60;10.02;8.79;70.23;70.18;70.01;69.08;58.92;0.58
76997;SPS30;65930;48.874;10.734;2023-03-30T08:38:48;9.17;9.08;8.88;8.17;65.24;65.21;65.14;64.70;55.91;0.55
76997;SPS30;65930;48.874;10.734;2023-03-30T08:41:22;6.94;6.82;6.60;5.97;47.71;47.68;47.61;47.18;40.60;0.57
76997;SPS30;65930;48.874;10.734;2023-03-30T08:44:19;7.04;6.87;6.52;5.77;46.08;46.05;45.95;45.39;38.80;0.58
76997;SPS30;65930;48.874;10.734;2023-03-30T08:47:00;6.90;6.63;6.10;5.15;41.15;41.11;40.96;40.19;33.87;0.62
76997;SPS30;65930;48.874;10.734;2023-03-30T08:49:34;6.63;6.35;5.80;4.84;38.70;38.66;38.51;37.72;31.69;0.63
76997;SPS30;65930;48.874;10.734;2023-03-30T08:52:09;7.08;6.74;6.06;4.94;39.44;39.39;39.21;38.26;31.88;0.63
76997;SPS30;65930;48.874;10.734;2023-03-30T08:54:49;8.61;8.37;7.89;6.91;55.17;55.12;54.99;54.23;46.21;0.58
76997;SPS30;65930;48.874;10.734;2023-03-30T08:57:21;7.54;7.37;7.03;6.25;49.91;49.88;49.78;49.21;42.13;0.58
76997;SPS30;65930;48.874;10.734;2023-03-30T09:00:06;7.12;6.89;6.44;5.56;44.42;44.38;44.26;43.57;36.99;0.60
76997;SPS30;65930;48.874;10.734;2023-03-30T09:02:48;6.80;6.57;6.12;5.25;41.97;41.93;41.80;41.12;34.85;0.62
76997;SPS30;65930;48.874;10.734;2023-03-30T09:05:22;6.96;6.71;6.20;5.28;42.18;42.14;42.00;41.26;34.86;0.63
76997;SPS30;65930;48.874;10.734;2023-03-30T09:07:58;6.29;6.11;5.75;5.02;40.09;40.05;39.95;39.39;33.53;0.59
76997;SPS30;65930;48.874;10.734;2023-03-30T09:10:36;6.88;6.67;6.26;5.43;43.41;43.38;43.26;42.63;36.24;0.59
76997;SPS30;65930;48.874;10.734;2023-03-30T09:13:11;7.11;6.96;6.67;5.98;47.75;47.72;47.64;47.14;40.44;0.57
76997;SPS30;65930;48.874;10.734;2023-03-30T09:15:42;6.22;6.10;5.88;5.30;42.33;42.31;42.24;41.84;35.95;0.57
76997;SPS30;65930;48.874;10.734;2023-03-30T09:18:20;8.94;8.72;8.28;7.32;58.48;58.44;58.32;57.60;49.23;0.59
76997;SPS30;65930;48.874;10.734;2023-03-30T09:20:53;9.61;9.45;9.12;8.25;65.86;65.82;65.72;65.11;56.00;0.58
76997;SPS30;65930;48.874;10.734;2023-03-30T09:23:25;7.36;7.24;6.99;6.33;50.55;50.53;50.45;50.00;43.02;0.58